Flugplatz Neuburg Airport

Bericht für ETSN

vom 20.10. um 03:20 UTC

kein Wind

Sichtweite 100 m

Nebel

Temperatur 3.0°C

Taupunkt 3.0°C

Luftfeuchtigkeit 100%

Luftdruck 1019 hPa

ETSN 200320Z 00000KT 0100 FG VV000 03/03 Q1019 RED

Prognose für ETSN

vom 20.10. um 01:22 UTC

Zwischen 02:00 UTC und 07:00 UTC

variable Windrichtung mit 2 kt

Sichtweite 500 m

Nebel

gering bewölkt in 100 ft


Zwischen 03:00 UTC und 07:00 UTC mit einer Wahrscheinlichkeit von 30%

variable Windrichtung mit 1 kt

Sichtweite 200 m

Nebel


Zwischen 07:00 und 09:00 UTC übergehend zu

Wind 5 kt aus 200°

Sichtweite 8000 m

keine signifikanten Wettererscheinungen

aufgelockert bewölkt in 30000 ft

TAF ETSN 200122Z 2002/2011 VRB02KT 0500 FG FEW001 PROB30 2003/2007 VRB01KT 0200 FG VV001 BECMG 2007/2009 20005KT 8000 NSW SCT300 BY ETGL
Impressum